Capitol Logistics 210


KMIA
Miami International Airport
Miami, Florida, US
MMMX
Benito Juárez International Airport
Mexico City, , MX

Activity Log

Date Flight Route Aircraft Duration
12/02/2019 CPX210 MNATE2 MNATE MTH B646 CANOA UB646 XOPGI UR522 NUBEL UT31 PAZ UJ55 DATUL DATUL4A B763 3h 27m
10/13/2019 CPX210 KMIA/08R EONNS2 EONNS G430 AVION B646 CANOA UM346 AXOMU UR522 PAZ UJ55 DATUL DATU4A MMMX/SMO.D05L B763 3h 04m
08/31/2019 CPX210 MNATE2 MNATE MTH B646 CANOA UB646 XOPGI UR522 NUBEL UT31 PAZ UJ55 DATUL DATUL4A B763 2h 54m
08/12/2019 CPX210 BSTER2 WINCO CYY MINOW M580 IRDOV UM580 NUBEL UR522 COPOS UR522 PAZ UJ55 DATUL DATU4A B763 2h 43m
07/26/2019 CPX210 MNATE2 MNATE MTH B646 CANOA UB646 XOPGI UR522 NUBEL UT31 PAZ UJ55 DATUL DATUL4A B763 2h 56m
07/20/2019 CPX210 MNATE2 MNATE MTH B646 CANOA UB646 XOPGI UR522 NUBEL UT31 PAZ UJ55 DATUL DATUL4A B763 2h 52m
07/10/2019 CPX210 MNATE2 MNATE MTH B646 CANOA UB646 XOPGI UR522 NUBEL UT31 PAZ B763 2h 56m
06/28/2019 CPX210 MNATE2 MNATE MTH B646 CANOA UB646 XOPGI UR522 NUBEL UT31 PAZ UJ55 DATUL DATUL4A B763 2h 58m
06/16/2019 CPX210 MNATE2 MNATE MTH B646 CANOA UB646 XOPGI UR522 NUBEL UT31 PAZ UJ55 DATUL DATUL4A B763 3h 00m
04/07/2019 CPX210 MNATE2 MNATE MTH B646 CANOA UB646 XOPGI UR522 NUBEL UT31 PAZ UJ55 DATUL DATUL4A B763 3h 16m
02/13/2019 CPX210 MNATE2 MNATE MTH B646 CANOA UB646 XOPGI UR522 NUBEL UT31 PAZ UJ55 DATUL DATUL4A B763 3h 06m
02/04/2019 CPX210 MNATE2 MNATE LULLS Y196 CANOA B646 XOPGI UR522 LERUV UR522 PAZ UJ55 DATUL DATU1C B763 3h 10m
12/30/2018 CPX210 MNATE2 MNATE MTH B646 CANOA UB646 XOPGI UR522 NUBEL UT31 PAZ UJ55 DATUL DATUL4A B763 2h 54m
12/12/2018 CPX212 MNATE2 MNATE MTH B646 CANOA UB646 XOPGI UR522 NUBEL UT31 PAZ UJ55 DATUL DATUL4A B763 3h 06m

Route Details

Aircraft Information
Primary: Boeing 767-300BDSF
Backup: Not Available
Route Data
Distance: 1190nm
Sched. Duration: 3h 00m
Avg. Duration: 2h 81m (-18m)
Times Flown: 14
Recm'd Route: MNATE2 MNATE MTH B646 CANOA UB646 XOPGI UR522 NUBEL UT31 PAZ UJ55 DATUL DATUL4A
Planned Altitude: 34,000ft
Origin Wx: KMIA 060009Z 19007KT 10SM -RA FEW035 FEW045 BKN130 OVC220 26/22 A3002 RMK AO2 LTG DSNT NE AND E RAB09 TSE08 FRQ LTGICCCCG DSNT NE-E CB DSNT NE-E AND SW-W MOV NE P0000 T02610222 $
Dest. Wx: MMMX 052347Z 27008KT 5SM -RA BKN020CB OVC080 17/14 A3027 NOSIG RMK SLP100 52015 905 60155 8/96/ HZY
Notes:

Financial History
Total Freight: 1,257,379lbs
Average Load: 89,813lbs/flt
Fuel Used: 447,525lbs
Avg. Fuel Used: 31,966lbs/flt
Fuel Expense: $550,456
Avg. Fuel Expense: $39,318
Avg. Fuel Cost: $1.23/lbs
Total Gross Income: $2,943,657
Pilot Pay: $2,436
Total Expenses: $318,643
Total Revenue: $2,064,505
Average Revenue: $210,261.18